sensor_id;sensor_type;location;lat;lon;timestamp;P1;durP1;ratioP1;P2;durP2;ratioP2
24273;SDS011;12392;42.678;23.380;2022-08-07T00:01:50;10.77;;;6.93;;
24273;SDS011;12392;42.678;23.380;2022-08-07T00:04:16;10.95;;;6.72;;
24273;SDS011;12392;42.678;23.380;2022-08-07T00:06:42;9.18;;;7.13;;
24273;SDS011;12392;42.678;23.380;2022-08-07T00:09:08;11.15;;;7.25;;
24273;SDS011;12392;42.678;23.380;2022-08-07T00:11:33;8.15;;;6.60;;
24273;SDS011;12392;42.678;23.380;2022-08-07T00:13:59;13.25;;;7.03;;
24273;SDS011;12392;42.678;23.380;2022-08-07T00:16:25;11.60;;;7.18;;
24273;SDS011;12392;42.678;23.380;2022-08-07T00:18:51;9.70;;;7.13;;
24273;SDS011;12392;42.678;23.380;2022-08-07T00:21:17;7.90;;;6.80;;
24273;SDS011;12392;42.678;23.380;2022-08-07T00:23:42;10.43;;;6.85;;
24273;SDS011;12392;42.678;23.380;2022-08-07T00:26:09;8.38;;;6.32;;
24273;SDS011;12392;42.678;23.380;2022-08-07T00:28:35;13.02;;;6.97;;
24273;SDS011;12392;42.678;23.380;2022-08-07T00:31:03;13.57;;;6.40;;
24273;SDS011;12392;42.678;23.380;2022-08-07T00:33:32;7.05;;;6.32;;
24273;SDS011;12392;42.678;23.380;2022-08-07T00:35:59;10.25;;;6.68;;
24273;SDS011;12392;42.678;23.380;2022-08-07T00:38:25;10.55;;;5.45;;
24273;SDS011;12392;42.678;23.380;2022-08-07T00:40:51;12.38;;;6.18;;
24273;SDS011;12392;42.678;23.380;2022-08-07T00:43:16;13.00;;;6.35;;
24273;SDS011;12392;42.678;23.380;2022-08-07T00:45:42;10.05;;;5.78;;
24273;SDS011;12392;42.678;23.380;2022-08-07T00:48:08;8.43;;;6.18;;
24273;SDS011;12392;42.678;23.380;2022-08-07T00:50:35;8.57;;;6.43;;
24273;SDS011;12392;42.678;23.380;2022-08-07T00:53:04;8.32;;;5.47;;
24273;SDS011;12392;42.678;23.380;2022-08-07T00:55:30;7.72;;;5.85;;
24273;SDS011;12392;42.678;23.380;2022-08-07T00:57:56;8.23;;;5.95;;
24273;SDS011;12392;42.678;23.380;2022-08-07T01:00:22;8.55;;;5.80;;
24273;SDS011;12392;42.678;23.380;2022-08-07T01:02:48;10.77;;;5.35;;
24273;SDS011;12392;42.678;23.380;2022-08-07T01:05:14;7.22;;;5.25;;
24273;SDS011;12392;42.678;23.380;2022-08-07T01:07:41;11.48;;;5.90;;
24273;SDS011;12392;42.678;23.380;2022-08-07T01:10:07;7.30;;;5.45;;
24273;SDS011;12392;42.678;23.380;2022-08-07T01:12:33;10.80;;;5.72;;
24273;SDS011;12392;42.678;23.380;2022-08-07T01:15:00;8.52;;;5.28;;
24273;SDS011;12392;42.678;23.380;2022-08-07T01:17:26;5.68;;;4.90;;
24273;SDS011;12392;42.678;23.380;2022-08-07T01:19:52;9.73;;;4.95;;
24273;SDS011;12392;42.678;23.380;2022-08-07T01:22:20;8.00;;;5.07;;
24273;SDS011;12392;42.678;23.380;2022-08-07T01:24:46;6.35;;;5.07;;
24273;SDS011;12392;42.678;23.380;2022-08-07T01:27:12;7.20;;;4.75;;
24273;SDS011;12392;42.678;23.380;2022-08-07T01:29:38;6.78;;;5.03;;
24273;SDS011;12392;42.678;23.380;2022-08-07T01:32:04;6.10;;;5.18;;
24273;SDS011;12392;42.678;23.380;2022-08-07T01:34:30;9.00;;;5.25;;
24273;SDS011;12392;42.678;23.380;2022-08-07T01:36:57;5.93;;;5.32;;
24273;SDS011;12392;42.678;23.380;2022-08-07T01:39:23;7.25;;;5.10;;
24273;SDS011;12392;42.678;23.380;2022-08-07T01:41:50;7.80;;;4.97;;
24273;SDS011;12392;42.678;23.380;2022-08-07T01:44:16;7.63;;;5.05;;
24273;SDS011;12392;42.678;23.380;2022-08-07T01:46:41;8.55;;;4.80;;
24273;SDS011;12392;42.678;23.380;2022-08-07T01:49:08;7.38;;;4.90;;
24273;SDS011;12392;42.678;23.380;2022-08-07T01:51:35;6.88;;;5.25;;
24273;SDS011;12392;42.678;23.380;2022-08-07T01:54:02;6.65;;;5.50;;
24273;SDS011;12392;42.678;23.380;2022-08-07T01:56:33;8.68;;;5.38;;
24273;SDS011;12392;42.678;23.380;2022-08-07T01:59:13;7.80;;;6.13;;
24273;SDS011;12392;42.678;23.380;2022-08-07T02:01:47;8.93;;;6.85;;
24273;SDS011;12392;42.678;23.380;2022-08-07T02:04:24;9.10;;;6.72;;
24273;SDS011;12392;42.678;23.380;2022-08-07T02:06:53;13.40;;;7.25;;
24273;SDS011;12392;42.678;23.380;2022-08-07T02:09:20;8.95;;;6.95;;
24273;SDS011;12392;42.678;23.380;2022-08-07T02:11:47;9.30;;;6.75;;
24273;SDS011;12392;42.678;23.380;2022-08-07T02:14:13;10.23;;;6.85;;
24273;SDS011;12392;42.678;23.380;2022-08-07T02:16:41;11.40;;;7.40;;
24273;SDS011;12392;42.678;23.380;2022-08-07T02:19:09;10.80;;;6.65;;
24273;SDS011;12392;42.678;23.380;2022-08-07T02:21:36;9.55;;;6.75;;
24273;SDS011;12392;42.678;23.380;2022-08-07T02:24:03;7.43;;;6.40;;
24273;SDS011;12392;42.678;23.380;2022-08-07T02:26:29;9.95;;;7.07;;
24273;SDS011;12392;42.678;23.380;2022-08-07T02:28:57;12.27;;;7.75;;
24273;SDS011;12392;42.678;23.380;2022-08-07T02:31:24;12.55;;;7.57;;
24273;SDS011;12392;42.678;23.380;2022-08-07T02:33:50;8.93;;;7.30;;
24273;SDS011;12392;42.678;23.380;2022-08-07T02:36:17;13.10;;;7.93;;
24273;SDS011;12392;42.678;23.380;2022-08-07T02:38:43;12.02;;;7.80;;
24273;SDS011;12392;42.678;23.380;2022-08-07T02:41:09;11.02;;;7.50;;
24273;SDS011;12392;42.678;23.380;2022-08-07T02:43:37;7.75;;;6.90;;
24273;SDS011;12392;42.678;23.380;2022-08-07T02:46:03;8.90;;;8.00;;
24273;SDS011;12392;42.678;23.380;2022-08-07T02:48:29;12.15;;;8.60;;
24273;SDS011;12392;42.678;23.380;2022-08-07T02:50:55;9.30;;;8.27;;
24273;SDS011;12392;42.678;23.380;2022-08-07T02:53:25;10.77;;;7.47;;
24273;SDS011;12392;42.678;23.380;2022-08-07T02:55:55;10.73;;;7.72;;
24273;SDS011;12392;42.678;23.380;2022-08-07T02:58:22;9.30;;;6.72;;
24273;SDS011;12392;42.678;23.380;2022-08-07T03:00:49;8.95;;;7.35;;
24273;SDS011;12392;42.678;23.380;2022-08-07T03:03:16;12.23;;;8.18;;
24273;SDS011;12392;42.678;23.380;2022-08-07T03:05:43;9.63;;;7.65;;
24273;SDS011;12392;42.678;23.380;2022-08-07T03:08:09;9.88;;;7.68;;
24273;SDS011;12392;42.678;23.380;2022-08-07T03:10:37;10.70;;;7.90;;
24273;SDS011;12392;42.678;23.380;2022-08-07T03:13:03;9.30;;;7.32;;
24273;SDS011;12392;42.678;23.380;2022-08-07T03:15:30;9.85;;;7.40;;
24273;SDS011;12392;42.678;23.380;2022-08-07T03:17:56;12.18;;;7.72;;
24273;SDS011;12392;42.678;23.380;2022-08-07T03:20:22;11.50;;;6.22;;
24273;SDS011;12392;42.678;23.380;2022-08-07T03:22:48;8.95;;;7.40;;
24273;SDS011;12392;42.678;23.380;2022-08-07T03:25:14;10.52;;;7.68;;
24273;SDS011;12392;42.678;23.380;2022-08-07T03:27:42;8.88;;;7.65;;
24273;SDS011;12392;42.678;23.380;2022-08-07T03:30:08;9.20;;;8.00;;
24273;SDS011;12392;42.678;23.380;2022-08-07T03:32:35;10.20;;;8.38;;
24273;SDS011;12392;42.678;23.380;2022-08-07T03:35:03;11.82;;;7.82;;
24273;SDS011;12392;42.678;23.380;2022-08-07T03:37:32;11.98;;;7.70;;
24273;SDS011;12392;42.678;23.380;2022-08-07T03:40:02;10.27;;;7.97;;
24273;SDS011;12392;42.678;23.380;2022-08-07T03:42:29;11.60;;;7.80;;
24273;SDS011;12392;42.678;23.380;2022-08-07T03:44:57;9.13;;;7.20;;
24273;SDS011;12392;42.678;23.380;2022-08-07T03:47:24;14.15;;;8.30;;
24273;SDS011;12392;42.678;23.380;2022-08-07T03:49:50;9.50;;;8.23;;
24273;SDS011;12392;42.678;23.380;2022-08-07T03:52:16;10.40;;;8.57;;
24273;SDS011;12392;42.678;23.380;2022-08-07T03:54:46;10.50;;;7.75;;
24273;SDS011;12392;42.678;23.380;2022-08-07T03:57:11;10.65;;;8.50;;
24273;SDS011;12392;42.678;23.380;2022-08-07T03:59:38;8.82;;;7.93;;
24273;SDS011;12392;42.678;23.380;2022-08-07T04:02:04;10.82;;;7.75;;
24273;SDS011;12392;42.678;23.380;2022-08-07T04:04:32;9.30;;;8.10;;
24273;SDS011;12392;42.678;23.380;2022-08-07T04:06:58;10.65;;;8.90;;
24273;SDS011;12392;42.678;23.380;2022-08-07T04:09:24;10.38;;;8.63;;
24273;SDS011;12392;42.678;23.380;2022-08-07T04:11:52;12.25;;;8.65;;
24273;SDS011;12392;42.678;23.380;2022-08-07T04:14:18;10.13;;;8.10;;
24273;SDS011;12392;42.678;23.380;2022-08-07T04:16:44;8.85;;;7.57;;
24273;SDS011;12392;42.678;23.380;2022-08-07T04:19:10;11.02;;;7.75;;
24273;SDS011;12392;42.678;23.380;2022-08-07T04:21:35;10.23;;;7.03;;
24273;SDS011;12392;42.678;23.380;2022-08-07T04:24:01;9.18;;;6.78;;
24273;SDS011;12392;42.678;23.380;2022-08-07T04:26:29;8.65;;;6.93;;
24273;SDS011;12392;42.678;23.380;2022-08-07T04:28:55;7.88;;;6.05;;
24273;SDS011;12392;42.678;23.380;2022-08-07T04:31:23;8.27;;;7.00;;
24273;SDS011;12392;42.678;23.380;2022-08-07T04:33:49;9.00;;;6.72;;
24273;SDS011;12392;42.678;23.380;2022-08-07T04:36:15;8.10;;;6.90;;
24273;SDS011;12392;42.678;23.380;2022-08-07T04:38:41;9.35;;;6.82;;
24273;SDS011;12392;42.678;23.380;2022-08-07T04:41:07;8.13;;;6.38;;
24273;SDS011;12392;42.678;23.380;2022-08-07T04:43:36;10.35;;;6.65;;
24273;SDS011;12392;42.678;23.380;2022-08-07T04:46:14;7.93;;;6.82;;
24273;SDS011;12392;42.678;23.380;2022-08-07T04:56:30;8.18;;;6.85;;
24273;SDS011;12392;42.678;23.380;2022-08-07T05:01:54;10.57;;;7.50;;
24273;SDS011;12392;42.678;23.380;2022-08-07T05:07:15;6.55;;;5.95;;
24273;SDS011;12392;42.678;23.380;2022-08-07T05:12:23;12.32;;;6.20;;
24273;SDS011;12392;42.678;23.380;2022-08-07T05:14:59;8.75;;;5.85;;
24273;SDS011;12392;42.678;23.380;2022-08-07T05:17:41;6.13;;;5.53;;
24273;SDS011;12392;42.678;23.380;2022-08-07T05:20:12;8.07;;;5.88;;
24273;SDS011;12392;42.678;23.380;2022-08-07T05:22:43;6.82;;;6.10;;
24273;SDS011;12392;42.678;23.380;2022-08-07T05:25:10;7.22;;;5.75;;
24273;SDS011;12392;42.678;23.380;2022-08-07T05:27:37;8.20;;;5.97;;
24273;SDS011;12392;42.678;23.380;2022-08-07T05:30:03;10.23;;;6.72;;
24273;SDS011;12392;42.678;23.380;2022-08-07T05:32:29;11.15;;;6.38;;
24273;SDS011;12392;42.678;23.380;2022-08-07T05:34:55;9.70;;;6.93;;
24273;SDS011;12392;42.678;23.380;2022-08-07T05:37:22;11.75;;;6.85;;
24273;SDS011;12392;42.678;23.380;2022-08-07T05:39:48;12.38;;;6.60;;
24273;SDS011;12392;42.678;23.380;2022-08-07T05:42:14;7.65;;;6.85;;
24273;SDS011;12392;42.678;23.380;2022-08-07T05:44:40;8.93;;;7.03;;
24273;SDS011;12392;42.678;23.380;2022-08-07T05:47:06;10.25;;;7.65;;
24273;SDS011;12392;42.678;23.380;2022-08-07T05:49:32;9.63;;;8.27;;
24273;SDS011;12392;42.678;23.380;2022-08-07T05:51:58;8.05;;;7.10;;
24273;SDS011;12392;42.678;23.380;2022-08-07T05:54:24;8.25;;;7.35;;
24273;SDS011;12392;42.678;23.380;2022-08-07T05:56:50;8.50;;;7.28;;
24273;SDS011;12392;42.678;23.380;2022-08-07T05:59:18;8.45;;;6.72;;
24273;SDS011;12392;42.678;23.380;2022-08-07T06:01:45;8.90;;;6.70;;
24273;SDS011;12392;42.678;23.380;2022-08-07T06:04:13;11.13;;;7.80;;
24273;SDS011;12392;42.678;23.380;2022-08-07T06:06:39;13.07;;;7.35;;
24273;SDS011;12392;42.678;23.380;2022-08-07T06:09:05;10.43;;;7.40;;
24273;SDS011;12392;42.678;23.380;2022-08-07T06:11:32;8.20;;;6.63;;
24273;SDS011;12392;42.678;23.380;2022-08-07T06:13:58;9.60;;;7.38;;
24273;SDS011;12392;42.678;23.380;2022-08-07T06:16:26;8.40;;;6.80;;
24273;SDS011;12392;42.678;23.380;2022-08-07T06:18:53;7.13;;;6.43;;
24273;SDS011;12392;42.678;23.380;2022-08-07T06:21:19;10.05;;;6.57;;
24273;SDS011;12392;42.678;23.380;2022-08-07T06:23:45;7.95;;;7.05;;
24273;SDS011;12392;42.678;23.380;2022-08-07T06:26:11;7.55;;;6.63;;
24273;SDS011;12392;42.678;23.380;2022-08-07T06:28:50;7.78;;;6.95;;
24273;SDS011;12392;42.678;23.380;2022-08-07T06:31:17;8.32;;;6.50;;
24273;SDS011;12392;42.678;23.380;2022-08-07T06:33:43;9.02;;;6.70;;
24273;SDS011;12392;42.678;23.380;2022-08-07T06:36:12;10.13;;;7.18;;
24273;SDS011;12392;42.678;23.380;2022-08-07T06:38:38;9.95;;;7.40;;
24273;SDS011;12392;42.678;23.380;2022-08-07T06:41:05;8.35;;;7.07;;
24273;SDS011;12392;42.678;23.380;2022-08-07T06:43:42;13.68;;;7.35;;
24273;SDS011;12392;42.678;23.380;2022-08-07T06:46:09;8.23;;;6.72;;
24273;SDS011;12392;42.678;23.380;2022-08-07T06:48:35;8.20;;;7.38;;
24273;SDS011;12392;42.678;23.380;2022-08-07T06:51:06;9.23;;;7.25;;
24273;SDS011;12392;42.678;23.380;2022-08-07T06:53:33;9.25;;;7.88;;
24273;SDS011;12392;42.678;23.380;2022-08-07T06:56:01;8.80;;;7.03;;
24273;SDS011;12392;42.678;23.380;2022-08-07T06:58:28;8.38;;;6.90;;
24273;SDS011;12392;42.678;23.380;2022-08-07T07:00:54;9.05;;;7.43;;
24273;SDS011;12392;42.678;23.380;2022-08-07T07:03:22;9.57;;;7.28;;
24273;SDS011;12392;42.678;23.380;2022-08-07T07:05:48;7.45;;;6.75;;
24273;SDS011;12392;42.678;23.380;2022-08-07T07:08:14;8.00;;;6.82;;
24273;SDS011;12392;42.678;23.380;2022-08-07T07:10:40;9.50;;;6.85;;
24273;SDS011;12392;42.678;23.380;2022-08-07T07:13:10;12.13;;;7.57;;
24273;SDS011;12392;42.678;23.380;2022-08-07T07:15:45;9.00;;;7.10;;
24273;SDS011;12392;42.678;23.380;2022-08-07T07:18:21;9.63;;;7.10;;
24273;SDS011;12392;42.678;23.380;2022-08-07T07:21:13;10.25;;;7.20;;
24273;SDS011;12392;42.678;23.380;2022-08-07T07:23:46;9.60;;;7.13;;
24273;SDS011;12392;42.678;23.380;2022-08-07T07:26:14;8.30;;;6.88;;
24273;SDS011;12392;42.678;23.380;2022-08-07T07:28:47;9.05;;;6.32;;
24273;SDS011;12392;42.678;23.380;2022-08-07T07:31:19;9.55;;;7.20;;
24273;SDS011;12392;42.678;23.380;2022-08-07T07:33:51;8.35;;;6.50;;
24273;SDS011;12392;42.678;23.380;2022-08-07T07:36:20;7.28;;;6.55;;
24273;SDS011;12392;42.678;23.380;2022-08-07T07:38:47;8.57;;;6.97;;
24273;SDS011;12392;42.678;23.380;2022-08-07T07:41:13;10.40;;;7.47;;
24273;SDS011;12392;42.678;23.380;2022-08-07T07:43:40;12.93;;;9.63;;
24273;SDS011;12392;42.678;23.380;2022-08-07T07:46:06;16.45;;;14.52;;
24273;SDS011;12392;42.678;23.380;2022-08-07T07:48:33;21.38;;;16.33;;
24273;SDS011;12392;42.678;23.380;2022-08-07T07:51:00;16.73;;;12.75;;
24273;SDS011;12392;42.678;23.380;2022-08-07T07:53:27;17.15;;;12.23;;
24273;SDS011;12392;42.678;23.380;2022-08-07T07:55:55;13.52;;;11.90;;
24273;SDS011;12392;42.678;23.380;2022-08-07T07:58:28;15.25;;;12.43;;
24273;SDS011;12392;42.678;23.380;2022-08-07T08:00:56;14.15;;;11.75;;
24273;SDS011;12392;42.678;23.380;2022-08-07T08:03:22;12.10;;;10.73;;
24273;SDS011;12392;42.678;23.380;2022-08-07T08:05:48;13.13;;;10.30;;
24273;SDS011;12392;42.678;23.380;2022-08-07T08:08:14;13.13;;;9.88;;
24273;SDS011;12392;42.678;23.380;2022-08-07T08:10:40;12.18;;;8.80;;
24273;SDS011;12392;42.678;23.380;2022-08-07T08:13:06;9.70;;;8.45;;
24273;SDS011;12392;42.678;23.380;2022-08-07T08:15:34;9.30;;;8.02;;
24273;SDS011;12392;42.678;23.380;2022-08-07T08:18:04;10.68;;;8.57;;
24273;SDS011;12392;42.678;23.380;2022-08-07T08:20:32;9.88;;;7.97;;
24273;SDS011;12392;42.678;23.380;2022-08-07T08:22:59;10.55;;;8.70;;
24273;SDS011;12392;42.678;23.380;2022-08-07T08:25:43;9.02;;;7.45;;
24273;SDS011;12392;42.678;23.380;2022-08-07T08:28:29;9.50;;;8.40;;
24273;SDS011;12392;42.678;23.380;2022-08-07T08:30:56;9.63;;;8.13;;
24273;SDS011;12392;42.678;23.380;2022-08-07T08:33:23;8.93;;;7.97;;
24273;SDS011;12392;42.678;23.380;2022-08-07T08:35:53;10.15;;;7.40;;
24273;SDS011;12392;42.678;23.380;2022-08-07T08:38:21;8.70;;;7.78;;
24273;SDS011;12392;42.678;23.380;2022-08-07T08:40:57;10.00;;;7.07;;
24273;SDS011;12392;42.678;23.380;2022-08-07T08:46:42;9.20;;;7.47;;
24273;SDS011;12392;42.678;23.380;2022-08-07T08:52:11;12.23;;;7.53;;
24273;SDS011;12392;42.678;23.380;2022-08-07T09:00:28;9.38;;;8.10;;
24273;SDS011;12392;42.678;23.380;2022-08-07T09:03:09;11.75;;;8.15;;
24273;SDS011;12392;42.678;23.380;2022-08-07T09:05:53;9.38;;;7.65;;
24273;SDS011;12392;42.678;23.380;2022-08-07T09:11:43;8.75;;;6.65;;
24273;SDS011;12392;42.678;23.380;2022-08-07T09:14:15;9.30;;;7.57;;
24273;SDS011;12392;42.678;23.380;2022-08-07T09:19:21;11.07;;;7.40;;
24273;SDS011;12392;42.678;23.380;2022-08-07T09:27:29;7.90;;;7.10;;
24273;SDS011;12392;42.678;23.380;2022-08-07T09:30:07;9.43;;;5.80;;
24273;SDS011;12392;42.678;23.380;2022-08-07T09:35:50;11.32;;;5.90;;
24273;SDS011;12392;42.678;23.380;2022-08-07T09:41:22;12.18;;;5.72;;
24273;SDS011;12392;42.678;23.380;2022-08-07T09:43:57;5.30;;;4.80;;
24273;SDS011;12392;42.678;23.380;2022-08-07T09:47:02;7.78;;;6.10;;
24273;SDS011;12392;42.678;23.380;2022-08-07T09:49:47;9.40;;;5.40;;
24273;SDS011;12392;42.678;23.380;2022-08-07T09:55:03;6.25;;;5.65;;
24273;SDS011;12392;42.678;23.380;2022-08-07T10:00:18;8.57;;;6.70;;
24273;SDS011;12392;42.678;23.380;2022-08-07T10:08:06;7.53;;;6.30;;
24273;SDS011;12392;42.678;23.380;2022-08-07T10:35:13;6.60;;;5.72;;
24273;SDS011;12392;42.678;23.380;2022-08-07T10:38:00;5.35;;;4.85;;
24273;SDS011;12392;42.678;23.380;2022-08-07T10:40:43;5.97;;;5.35;;
24273;SDS011;12392;42.678;23.380;2022-08-07T10:43:17;5.18;;;4.68;;
24273;SDS011;12392;42.678;23.380;2022-08-07T10:45:57;7.03;;;5.40;;
24273;SDS011;12392;42.678;23.380;2022-08-07T10:48:39;6.97;;;5.40;;
24273;SDS011;12392;42.678;23.380;2022-08-07T11:02:14;6.78;;;5.40;;
24273;SDS011;12392;42.678;23.380;2022-08-07T11:07:41;6.57;;;5.10;;
24273;SDS011;12392;42.678;23.380;2022-08-07T11:15:57;6.65;;;5.35;;
24273;SDS011;12392;42.678;23.380;2022-08-07T11:18:34;10.52;;;6.25;;
24273;SDS011;12392;42.678;23.380;2022-08-07T11:21:11;10.48;;;6.35;;
24273;SDS011;12392;42.678;23.380;2022-08-07T11:26:25;7.80;;;6.53;;
24273;SDS011;12392;42.678;23.380;2022-08-07T11:29:00;6.85;;;6.15;;
24273;SDS011;12392;42.678;23.380;2022-08-07T11:34:04;7.28;;;6.57;;
24273;SDS011;12392;42.678;23.380;2022-08-07T11:40:19;8.43;;;7.10;;
24273;SDS011;12392;42.678;23.380;2022-08-07T12:01:21;10.60;;;6.32;;
24273;SDS011;12392;42.678;23.380;2022-08-07T12:07:16;8.85;;;6.85;;
24273;SDS011;12392;42.678;23.380;2022-08-07T12:09:49;9.70;;;8.43;;
24273;SDS011;12392;42.678;23.380;2022-08-07T12:12:25;6.00;;;5.40;;
24273;SDS011;12392;42.678;23.380;2022-08-07T12:17:31;6.22;;;5.63;;
24273;SDS011;12392;42.678;23.380;2022-08-07T12:20:12;6.25;;;5.65;;
24273;SDS011;12392;42.678;23.380;2022-08-07T12:22:55;6.93;;;5.93;;
24273;SDS011;12392;42.678;23.380;2022-08-07T12:28:25;8.75;;;6.50;;
24273;SDS011;12392;42.678;23.380;2022-08-07T12:31:02;6.55;;;5.95;;
24273;SDS011;12392;42.678;23.380;2022-08-07T12:33:30;8.83;;;6.27;;
24273;SDS011;12392;42.678;23.380;2022-08-07T12:35:56;8.43;;;6.00;;
24273;SDS011;12392;42.678;23.380;2022-08-07T12:38:23;7.55;;;6.10;;
24273;SDS011;12392;42.678;23.380;2022-08-07T12:40:51;7.28;;;5.78;;
24273;SDS011;12392;42.678;23.380;2022-08-07T12:43:19;5.32;;;4.82;;
24273;SDS011;12392;42.678;23.380;2022-08-07T12:45:56;6.80;;;4.43;;
24273;SDS011;12392;42.678;23.380;2022-08-07T12:48:35;4.90;;;4.40;;
24273;SDS011;12392;42.678;23.380;2022-08-07T12:51:16;7.28;;;4.60;;
24273;SDS011;12392;42.678;23.380;2022-08-07T12:53:48;5.50;;;5.00;;
24273;SDS011;12392;42.678;23.380;2022-08-07T12:58:59;12.48;;;6.30;;
24273;SDS011;12392;42.678;23.380;2022-08-07T13:01:29;6.18;;;5.57;;
24273;SDS011;12392;42.678;23.380;2022-08-07T13:06:58;6.93;;;6.10;;
24273;SDS011;12392;42.678;23.380;2022-08-07T13:09:39;9.13;;;6.22;;
24273;SDS011;12392;42.678;23.380;2022-08-07T13:12:13;8.98;;;6.22;;
24273;SDS011;12392;42.678;23.380;2022-08-07T13:20:46;6.63;;;5.90;;
24273;SDS011;12392;42.678;23.380;2022-08-07T13:23:37;6.15;;;5.55;;
24273;SDS011;12392;42.678;23.380;2022-08-07T13:26:06;7.50;;;5.80;;
24273;SDS011;12392;42.678;23.380;2022-08-07T13:28:38;10.23;;;6.00;;
24273;SDS011;12392;42.678;23.380;2022-08-07T13:34:15;6.32;;;5.45;;
24273;SDS011;12392;42.678;23.380;2022-08-07T13:37:09;6.47;;;5.20;;
24273;SDS011;12392;42.678;23.380;2022-08-07T13:40:01;6.78;;;5.70;;
24273;SDS011;12392;42.678;23.380;2022-08-07T13:42:49;8.40;;;5.68;;
24273;SDS011;12392;42.678;23.380;2022-08-07T13:45:15;7.97;;;6.15;;
24273;SDS011;12392;42.678;23.380;2022-08-07T13:47:43;9.63;;;5.95;;
24273;SDS011;12392;42.678;23.380;2022-08-07T13:50:09;7.95;;;6.45;;
24273;SDS011;12392;42.678;23.380;2022-08-07T13:52:38;7.53;;;5.68;;
24273;SDS011;12392;42.678;23.380;2022-08-07T13:55:07;7.88;;;6.32;;
24273;SDS011;12392;42.678;23.380;2022-08-07T13:57:37;6.90;;;6.20;;
24273;SDS011;12392;42.678;23.380;2022-08-07T14:00:05;7.55;;;5.95;;
24273;SDS011;12392;42.678;23.380;2022-08-07T14:02:33;6.35;;;5.75;;
24273;SDS011;12392;42.678;23.380;2022-08-07T14:05:00;7.57;;;6.20;;
24273;SDS011;12392;42.678;23.380;2022-08-07T14:07:44;6.95;;;5.97;;
24273;SDS011;12392;42.678;23.380;2022-08-07T14:10:10;7.70;;;6.15;;
24273;SDS011;12392;42.678;23.380;2022-08-07T14:15:31;7.32;;;5.63;;
24273;SDS011;12392;42.678;23.380;2022-08-07T14:18:01;6.85;;;5.72;;
24273;SDS011;12392;42.678;23.380;2022-08-07T14:20:32;10.40;;;5.32;;
24273;SDS011;12392;42.678;23.380;2022-08-07T14:23:04;6.07;;;5.47;;
24273;SDS011;12392;42.678;23.380;2022-08-07T14:25:32;6.07;;;5.38;;
24273;SDS011;12392;42.678;23.380;2022-08-07T14:28:02;7.22;;;5.80;;
24273;SDS011;12392;42.678;23.380;2022-08-07T14:30:30;7.15;;;5.88;;
24273;SDS011;12392;42.678;23.380;2022-08-07T14:32:57;7.85;;;6.63;;
24273;SDS011;12392;42.678;23.380;2022-08-07T14:35:27;9.82;;;6.45;;
24273;SDS011;12392;42.678;23.380;2022-08-07T14:37:54;8.02;;;7.22;;
24273;SDS011;12392;42.678;23.380;2022-08-07T14:40:22;8.73;;;7.20;;
24273;SDS011;12392;42.678;23.380;2022-08-07T14:42:56;11.52;;;7.40;;
24273;SDS011;12392;42.678;23.380;2022-08-07T14:45:32;7.32;;;6.63;;
24273;SDS011;12392;42.678;23.380;2022-08-07T14:48:04;9.77;;;7.35;;
24273;SDS011;12392;42.678;23.380;2022-08-07T14:50:32;8.02;;;6.80;;
24273;SDS011;12392;42.678;23.380;2022-08-07T14:52:59;10.65;;;7.03;;
24273;SDS011;12392;42.678;23.380;2022-08-07T14:55:29;11.88;;;6.80;;
24273;SDS011;12392;42.678;23.380;2022-08-07T14:57:56;8.35;;;7.13;;
24273;SDS011;12392;42.678;23.380;2022-08-07T15:00:25;7.68;;;6.88;;
24273;SDS011;12392;42.678;23.380;2022-08-07T15:02:53;8.35;;;7.28;;
24273;SDS011;12392;42.678;23.380;2022-08-07T15:05:20;8.60;;;7.63;;
24273;SDS011;12392;42.678;23.380;2022-08-07T15:07:47;7.93;;;6.70;;
24273;SDS011;12392;42.678;23.380;2022-08-07T15:10:16;7.45;;;6.25;;
24273;SDS011;12392;42.678;23.380;2022-08-07T15:12:46;7.40;;;6.70;;
24273;SDS011;12392;42.678;23.380;2022-08-07T15:15:14;8.52;;;6.78;;
24273;SDS011;12392;42.678;23.380;2022-08-07T15:18:00;9.00;;;6.60;;
24273;SDS011;12392;42.678;23.380;2022-08-07T15:20:32;9.57;;;6.28;;
24273;SDS011;12392;42.678;23.380;2022-08-07T15:23:06;7.20;;;6.47;;
24273;SDS011;12392;42.678;23.380;2022-08-07T15:25:55;8.60;;;6.30;;
24273;SDS011;12392;42.678;23.380;2022-08-07T15:28:23;9.05;;;7.13;;
24273;SDS011;12392;42.678;23.380;2022-08-07T15:30:54;7.03;;;6.32;;
24273;SDS011;12392;42.678;23.380;2022-08-07T15:33:21;13.52;;;7.05;;
24273;SDS011;12392;42.678;23.380;2022-08-07T15:35:49;9.52;;;6.93;;
24273;SDS011;12392;42.678;23.380;2022-08-07T15:38:15;8.32;;;6.78;;
24273;SDS011;12392;42.678;23.380;2022-08-07T15:40:44;7.25;;;6.43;;
24273;SDS011;12392;42.678;23.380;2022-08-07T15:43:13;8.45;;;7.18;;
24273;SDS011;12392;42.678;23.380;2022-08-07T15:45:43;9.48;;;7.15;;
24273;SDS011;12392;42.678;23.380;2022-08-07T15:50:40;8.63;;;6.82;;
24273;SDS011;12392;42.678;23.380;2022-08-07T15:53:11;9.60;;;6.78;;
24273;SDS011;12392;42.678;23.380;2022-08-07T15:55:44;8.00;;;6.72;;
24273;SDS011;12392;42.678;23.380;2022-08-07T15:58:16;9.95;;;6.60;;
24273;SDS011;12392;42.678;23.380;2022-08-07T16:00:42;8.55;;;6.70;;
24273;SDS011;12392;42.678;23.380;2022-08-07T16:03:13;7.93;;;6.55;;
24273;SDS011;12392;42.678;23.380;2022-08-07T16:05:45;11.65;;;7.18;;
24273;SDS011;12392;42.678;23.380;2022-08-07T16:08:14;9.90;;;6.55;;
24273;SDS011;12392;42.678;23.380;2022-08-07T16:10:51;8.13;;;6.57;;
24273;SDS011;12392;42.678;23.380;2022-08-07T16:19:05;7.22;;;6.53;;
24273;SDS011;12392;42.678;23.380;2022-08-07T16:24:58;8.32;;;6.75;;
24273;SDS011;12392;42.678;23.380;2022-08-07T16:27:32;7.72;;;6.93;;
24273;SDS011;12392;42.678;23.380;2022-08-07T16:57:58;8.35;;;6.40;;
24273;SDS011;12392;42.678;23.380;2022-08-07T17:00:30;6.50;;;5.55;;
24273;SDS011;12392;42.678;23.380;2022-08-07T17:08:07;7.60;;;6.40;;
24273;SDS011;12392;42.678;23.380;2022-08-07T17:10:38;10.10;;;6.10;;
24273;SDS011;12392;42.678;23.380;2022-08-07T17:16:01;8.80;;;5.72;;
24273;SDS011;12392;42.678;23.380;2022-08-07T17:21:12;9.05;;;6.75;;
24273;SDS011;12392;42.678;23.380;2022-08-07T17:34:51;10.18;;;7.07;;
24273;SDS011;12392;42.678;23.380;2022-08-07T17:37:19;8.35;;;6.97;;
24273;SDS011;12392;42.678;23.380;2022-08-07T17:40:26;11.75;;;8.45;;
24273;SDS011;12392;42.678;23.380;2022-08-07T17:43:01;9.85;;;7.13;;
24273;SDS011;12392;42.678;23.380;2022-08-07T17:45:41;7.82;;;5.80;;
24273;SDS011;12392;42.678;23.380;2022-08-07T17:48:27;11.82;;;6.88;;
24273;SDS011;12392;42.678;23.380;2022-08-07T17:51:14;12.83;;;7.20;;
24273;SDS011;12392;42.678;23.380;2022-08-07T17:53:57;10.27;;;7.03;;
24273;SDS011;12392;42.678;23.380;2022-08-07T17:56:30;10.68;;;7.35;;
24273;SDS011;12392;42.678;23.380;2022-08-07T17:58:58;10.48;;;8.32;;
24273;SDS011;12392;42.678;23.380;2022-08-07T18:04:50;9.98;;;6.72;;
24273;SDS011;12392;42.678;23.380;2022-08-07T18:10:16;7.50;;;6.75;;
24273;SDS011;12392;42.678;23.380;2022-08-07T18:15:27;8.05;;;6.93;;
24273;SDS011;12392;42.678;23.380;2022-08-07T18:18:00;8.35;;;7.55;;
24273;SDS011;12392;42.678;23.380;2022-08-07T18:20:32;9.05;;;7.85;;
24273;SDS011;12392;42.678;23.380;2022-08-07T18:23:06;9.10;;;7.45;;
24273;SDS011;12392;42.678;23.380;2022-08-07T18:25:34;9.13;;;7.30;;
24273;SDS011;12392;42.678;23.380;2022-08-07T18:28:22;8.43;;;7.45;;
24273;SDS011;12392;42.678;23.380;2022-08-07T18:42:24;10.25;;;7.82;;
24273;SDS011;12392;42.678;23.380;2022-08-07T18:45:13;9.32;;;7.57;;